Aviation Digital Data Service (ADDS)

Output produced by METARs form (1259 UTC 26 March 2019)
found at http://www.aviationweather.gov/metar/data/
 
VCBI 261210Z 27006KT 230V310 9999 FEW020 30/23 Q1010 NOSIG
TAF VCBI 261100Z 2612/2718 24010KT 9999 FEW020 TX32/2707Z TN25/2700Z 
     BECMG 2614/2616 05005KT 
     TEMPO 2700/2702 6000 
     BECMG 2704/2706 28010KT